Main page
METAR-TAF:

METAR-TAF

Airports :

Milan, Italy

Milan–Malpensa Airport

latitude: 45-37N, longitude: 008-44E, elevation: 234 m

Current weather observation

The report was made 33 minutes ago, at 21:20 UTC
Wind 9 kt from the North
Temperature 9°C
Humidity 34%
Pressure 1013 hPa
Visibility 10 km or more
no clouds below 1500 m and no cumulonimbus

METAR: LIMC 282120Z 01009KT CAVOK 09/M06 Q1013 NOSIG

Time: 23:53 (21:53 UTC)

Forecast

The report was made 4 hours and 53 minutes ago, at 17:00 UTC
Forecast valid from 28 at 18 UTC to 29 at 24 UTC
Wind 12 kt from the North
Visibility 10 km or more
no clouds below 1500 m and no cumulonimbus
Becoming
from 28 at 23 UTC to 29 at 01 UTC
Wind 5 kt from variable directions

TAF: LIMC 281700Z 2818/2924 36012KT CAVOK BECMG 2823/2901 VRB05KT

Weather observations and forecasts of more than 4000 airports (METAR and TAF reports).

The available stations are represented by yellow and red dots on the map.

Hover mouse over dot to see the name of the station.

Then click to see weather observations and forecasts.

To change the map : click on the green buttons with a black cross to zoom in, on the green button with a dash to zoom out, or on the green arrows for adjacent maps.


METAR-TAF: